createdAt,value
2019-04-05T00:01:11.849Z,23.30
2019-04-05T00:03:42.127Z,26.00
2019-04-05T00:06:12.327Z,22.93
2019-04-05T00:08:42.739Z,19.37
2019-04-05T00:11:12.981Z,19.17
2019-04-05T00:13:43.305Z,24.50
2019-04-05T00:16:13.624Z,17.20
2019-04-05T00:18:43.835Z,26.45
2019-04-05T00:21:14.043Z,20.65
2019-04-05T00:23:44.287Z,21.55
2019-04-05T00:26:14.492Z,21.90
2019-04-05T00:28:44.696Z,19.73
2019-04-05T00:31:14.930Z,22.40
2019-04-05T00:33:45.205Z,24.00
2019-04-05T00:36:15.469Z,23.22
2019-04-05T00:38:45.721Z,23.12
2019-04-05T00:41:17.468Z,24.27
2019-04-05T00:43:47.837Z,21.45
2019-04-05T00:46:18.098Z,20.08
2019-04-05T00:48:48.615Z,25.82
2019-04-05T00:51:18.858Z,24.05
2019-04-05T00:53:49.070Z,22.37
2019-04-05T00:56:19.263Z,23.62
2019-04-05T00:58:49.723Z,24.27
2019-04-05T01:01:19.916Z,22.90
2019-04-05T01:03:50.170Z,29.45
2019-04-05T01:06:20.361Z,24.55
2019-04-05T01:08:50.585Z,23.38
2019-04-05T01:11:20.814Z,26.93
2019-04-05T01:13:51.020Z,29.72
2019-04-05T01:16:21.250Z,29.40
2019-04-05T01:18:51.566Z,28.50
2019-04-05T01:21:24.665Z,33.00
2019-04-05T01:23:54.873Z,26.05
2019-04-05T01:26:25.101Z,27.50
2019-04-05T01:28:55.279Z,24.80
2019-04-05T01:31:25.541Z,27.42
2019-04-05T01:33:55.800Z,26.33
2019-04-05T01:36:26.263Z,26.20
2019-04-05T01:38:56.587Z,31.07
2019-04-05T01:41:26.932Z,23.92
2019-04-05T01:43:58.713Z,32.88
2019-04-05T01:46:28.936Z,28.52
2019-04-05T01:48:59.135Z,28.27
2019-04-05T01:51:29.368Z,30.15
2019-04-05T01:53:59.645Z,30.85
2019-04-05T01:56:29.844Z,27.00
2019-04-05T01:59:00.095Z,31.15
2019-04-05T02:01:30.306Z,23.45
2019-04-05T02:04:01.679Z,27.45
2019-04-05T02:06:31.953Z,25.52
2019-04-05T02:09:02.209Z,26.70
2019-04-05T02:11:32.872Z,23.15
2019-04-05T02:14:03.090Z,22.42
2019-04-05T02:16:33.310Z,23.20
2019-04-05T02:19:03.704Z,24.50
2019-04-05T02:21:33.929Z,25.00
2019-04-05T02:24:04.231Z,22.58
2019-04-05T02:26:34.460Z,23.57
2019-04-05T02:29:04.693Z,22.65
2019-04-05T02:31:34.897Z,28.57
2019-04-05T02:34:05.120Z,24.05
2019-04-05T02:36:35.427Z,24.65
2019-04-05T02:39:06.720Z,24.40
2019-04-05T02:41:37.152Z,22.07
2019-04-05T02:44:07.456Z,22.45
2019-04-05T02:46:37.677Z,19.87
2019-04-05T02:49:09.548Z,20.82
2019-04-05T02:51:39.768Z,24.25
2019-04-05T02:54:11.613Z,22.37
2019-04-05T02:56:41.820Z,25.72
2019-04-05T02:59:12.756Z,27.80
2019-04-05T03:01:43.020Z,21.90
2019-04-05T03:04:13.257Z,28.07
2019-04-05T03:06:43.480Z,25.25
2019-04-05T03:09:13.761Z,26.00
2019-04-05T03:11:43.963Z,24.18
2019-04-05T03:14:14.517Z,22.10
2019-04-05T03:16:45.561Z,19.05
2019-04-05T03:19:17.747Z,23.77
2019-04-05T03:21:51.001Z,24.00
2019-04-05T03:24:23.096Z,21.33
2019-04-05T03:26:56.446Z,20.27
2019-04-05T03:29:28.453Z,21.15
2019-04-05T03:31:58.684Z,25.15
2019-04-05T03:34:28.946Z,21.35
2019-04-05T03:36:59.935Z,15.40
2019-04-05T03:39:30.127Z,28.50
2019-04-05T03:42:00.542Z,20.85
2019-04-05T03:44:32.394Z,23.30
2019-04-05T03:47:02.816Z,20.05
2019-04-05T03:49:33.006Z,22.22
2019-04-05T03:52:04.553Z,17.65
2019-04-05T03:54:35.068Z,23.07
2019-04-05T03:57:05.265Z,25.52
2019-04-05T03:59:35.588Z,25.82
2019-04-05T04:02:05.787Z,25.23
2019-04-05T04:04:37.854Z,25.82
2019-04-05T04:07:09.630Z,25.32
2019-04-05T04:09:39.885Z,17.57
2019-04-05T04:12:10.078Z,24.15
2019-04-05T04:14:40.343Z,22.15
2019-04-05T04:17:12.635Z,22.73
2019-04-05T04:19:42.576Z,18.80
2019-04-05T04:22:16.055Z,20.62
2019-04-05T04:24:46.461Z,24.18
2019-04-05T04:27:16.703Z,20.72
2019-04-05T04:29:47.208Z,17.48
2019-04-05T04:32:17.552Z,20.35
2019-04-05T04:34:48.057Z,20.80
2019-04-05T04:37:18.333Z,23.65
2019-04-05T04:39:48.711Z,20.97
2019-04-05T04:42:20.601Z,19.32
2019-04-05T04:44:50.874Z,17.57
2019-04-05T04:47:27.015Z,21.33
2019-04-05T04:49:53.498Z,22.98
2019-04-05T04:52:23.696Z,22.00
2019-04-05T04:54:54.044Z,19.17
2019-04-05T04:57:24.324Z,20.50
2019-04-05T04:59:54.788Z,20.75
2019-04-05T05:02:25.035Z,25.15
2019-04-05T05:04:55.290Z,18.80
2019-04-05T05:07:25.605Z,24.90
2019-04-05T05:09:57.470Z,21.65
2019-04-05T05:12:27.705Z,16.07
2019-04-05T05:14:59.483Z,29.75
2019-04-05T05:17:38.290Z,22.22
2019-04-05T05:20:01.778Z,18.37
2019-04-05T05:22:32.002Z,21.12
2019-04-05T05:25:02.239Z,22.73
2019-04-05T05:27:32.478Z,17.65
2019-04-05T05:30:02.800Z,15.65
2019-04-05T05:32:33.108Z,19.57
2019-04-05T05:35:03.678Z,18.15
2019-04-05T05:37:35.560Z,20.62
2019-04-05T05:40:08.198Z,19.87
2019-04-05T05:42:38.543Z,23.57
2019-04-05T05:45:08.756Z,26.37
2019-04-05T05:47:51.273Z,17.87
2019-04-05T05:50:10.916Z,15.25
2019-04-05T05:52:43.546Z,19.12
2019-04-05T05:55:13.742Z,26.48
2019-04-05T05:57:45.543Z,19.50
2019-04-05T06:00:17.277Z,23.27
2019-04-05T06:02:48.591Z,22.93
2019-04-05T06:05:19.122Z,21.27
2019-04-05T06:07:49.475Z,22.98
2019-04-05T06:10:19.818Z,28.10
2019-04-05T06:12:50.345Z,19.57
2019-04-05T06:15:20.549Z,21.93
2019-04-05T06:18:04.111Z,21.33
2019-04-05T06:20:24.282Z,22.73
2019-04-05T06:22:54.662Z,26.65
2019-04-05T06:25:24.971Z,24.02
2019-04-05T06:27:55.254Z,21.02
2019-04-05T06:30:28.619Z,24.25
2019-04-05T06:32:57.477Z,19.23
2019-04-05T06:35:27.757Z,15.63
2019-04-05T06:37:58.046Z,18.10
2019-04-05T06:40:40.068Z,24.65
2019-04-05T06:43:00.327Z,29.92
2019-04-05T06:45:30.599Z,22.20
2019-04-05T06:48:00.835Z,28.90
2019-04-05T06:50:31.927Z,19.15
2019-04-05T06:53:02.189Z,25.45
2019-04-05T06:55:34.027Z,27.87
2019-04-05T06:58:05.826Z,20.20
2019-04-05T07:00:36.041Z,17.42
2019-04-05T07:03:06.339Z,20.23
2019-04-05T07:05:36.587Z,19.48
2019-04-05T07:08:06.941Z,23.30
2019-04-05T07:10:37.135Z,20.82
2019-04-05T07:13:07.405Z,21.73
2019-04-05T07:15:37.847Z,19.85
2019-04-05T07:18:08.072Z,21.12
2019-04-05T07:20:39.843Z,24.43
2019-04-05T07:23:11.719Z,23.30
2019-04-05T07:25:41.919Z,20.43
2019-04-05T07:28:12.232Z,23.87
2019-04-05T07:30:42.437Z,31.37
2019-04-05T07:33:12.782Z,25.37
2019-04-05T07:35:43.071Z,20.10
2019-04-05T07:38:13.259Z,12.98
2019-04-05T07:40:43.495Z,23.55
2019-04-05T07:43:13.694Z,17.57
2019-04-05T07:45:45.982Z,17.82
2019-04-05T07:48:15.872Z,30.50
2019-04-05T07:50:46.224Z,23.77
2019-04-05T07:53:16.588Z,25.57
2019-04-05T07:55:46.953Z,19.23
2019-04-05T07:58:18.002Z,21.25
2019-04-05T08:00:53.897Z,19.12
2019-04-05T08:03:24.501Z,19.00
2019-04-05T08:05:54.865Z,18.42
2019-04-05T08:08:34.505Z,18.35
2019-04-05T08:11:07.180Z,22.20
2019-04-05T08:13:38.425Z,19.23
2019-04-05T08:16:10.240Z,31.65
2019-04-05T08:18:40.426Z,21.42
2019-04-05T08:21:10.639Z,16.62
2019-04-05T08:23:40.901Z,20.75
2019-04-05T08:26:11.219Z,22.73
2019-04-05T08:28:41.513Z,23.07
2019-04-05T08:31:14.422Z,20.15
2019-04-05T08:33:43.687Z,18.87
2019-04-05T08:36:14.191Z,18.27
2019-04-05T08:38:44.382Z,21.07
2019-04-05T08:41:14.809Z,24.07
2019-04-05T08:43:47.187Z,22.73
2019-04-05T08:46:18.712Z,22.07
2019-04-05T08:48:48.977Z,23.22
2019-04-05T08:51:19.222Z,13.58
2019-04-05T08:53:49.412Z,17.98
2019-04-05T08:56:19.639Z,18.75
2019-04-05T08:58:49.851Z,14.63
2019-04-05T09:01:20.225Z,15.10
2019-04-05T09:03:50.507Z,21.85
2019-04-05T09:06:22.357Z,19.02
2019-04-05T09:08:52.678Z,17.07
2019-04-05T09:11:24.594Z,17.87
2019-04-05T09:13:54.781Z,17.67
2019-04-05T09:16:25.122Z,19.87
2019-04-05T09:18:55.301Z,14.23
2019-04-05T09:21:25.580Z,13.15
2019-04-05T09:23:59.219Z,14.40
2019-04-05T09:26:29.300Z,17.52
2019-04-05T09:28:59.565Z,11.55
2019-04-05T09:31:29.789Z,14.03
2019-04-05T09:34:00.248Z,26.25
2019-04-05T09:36:32.006Z,21.27
2019-04-05T09:39:02.243Z,20.10
2019-04-05T09:41:32.425Z,17.07
2019-04-05T09:44:02.643Z,17.00
2019-04-05T09:46:45.673Z,15.55
2019-04-05T09:49:05.592Z,16.32
2019-04-05T09:51:35.942Z,11.73
2019-04-05T09:54:06.121Z,19.65
2019-04-05T09:56:36.339Z,23.15
2019-04-05T09:59:08.140Z,16.93
2019-04-05T10:01:38.397Z,21.15
2019-04-05T10:04:08.650Z,21.87
2019-04-05T10:06:38.878Z,16.87
2019-04-05T10:09:09.258Z,15.30
2019-04-05T10:11:39.556Z,16.77
2019-04-05T10:14:09.825Z,19.07
2019-04-05T10:16:40.055Z,23.22
2019-04-05T10:19:10.276Z,21.05
2019-04-05T10:21:40.493Z,27.73
2019-04-05T10:24:10.689Z,13.83
2019-04-05T10:26:40.975Z,20.23
2019-04-05T10:29:11.255Z,15.80
2019-04-05T10:31:41.596Z,13.20
2019-04-05T10:34:11.833Z,11.80
2019-04-05T10:36:42.113Z,23.73
2019-04-05T10:39:12.354Z,14.20
2019-04-05T10:41:42.645Z,15.40
2019-04-05T10:44:14.518Z,13.13
2019-04-05T10:46:44.842Z,19.10
2019-04-05T10:49:16.869Z,15.75
2019-04-05T10:51:48.895Z,18.20
2019-04-05T10:54:19.147Z,15.85
2019-04-05T10:56:49.371Z,17.73
2019-04-05T10:59:19.585Z,18.35
2019-04-05T11:01:49.823Z,14.10
2019-04-05T11:04:20.079Z,22.80
2019-04-05T11:06:50.403Z,17.52
2019-04-05T11:09:20.819Z,19.07
2019-04-05T11:11:51.063Z,18.27
2019-04-05T11:14:22.916Z,23.00
2019-04-05T11:16:58.777Z,20.48
2019-04-05T11:19:26.686Z,29.65
2019-04-05T11:21:56.944Z,18.20
2019-04-05T11:24:27.177Z,21.37
2019-04-05T11:26:57.459Z,15.00
2019-04-05T11:29:27.702Z,14.45
2019-04-05T11:31:59.497Z,15.23
2019-04-05T11:34:29.711Z,16.90
2019-04-05T11:37:02.666Z,15.60
2019-04-05T11:39:31.961Z,24.37
2019-04-05T11:42:02.304Z,20.75
2019-04-05T11:44:33.100Z,26.00
2019-04-05T11:47:03.758Z,18.20
2019-04-05T11:49:34.515Z,16.52
2019-04-05T11:52:05.667Z,19.10
2019-04-05T11:54:35.945Z,15.75
2019-04-05T11:57:06.289Z,18.80
2019-04-05T11:59:36.504Z,16.45
2019-04-05T12:02:08.293Z,15.32
2019-04-05T12:04:38.697Z,11.85
2019-04-05T12:07:08.961Z,14.40
2019-04-05T12:09:39.148Z,27.85
2019-04-05T12:12:09.465Z,21.48
2019-04-05T12:14:39.698Z,18.17
2019-04-05T12:17:09.925Z,21.42
2019-04-05T12:19:40.183Z,22.07
2019-04-05T12:22:10.669Z,10.08
2019-04-05T12:24:40.933Z,15.85
2019-04-05T12:27:11.185Z,28.85
2019-04-05T12:29:41.545Z,12.78
2019-04-05T12:32:13.267Z,9.88
2019-04-05T12:34:45.323Z,11.30
2019-04-05T12:37:15.863Z,17.70
2019-04-05T12:39:46.209Z,13.25
2019-04-05T12:42:18.043Z,19.67
2019-04-05T12:44:48.450Z,26.02
2019-04-05T12:47:18.649Z,21.93
2019-04-05T12:49:48.907Z,13.32
2019-04-05T12:52:22.960Z,18.73
2019-04-05T12:54:54.820Z,9.60
2019-04-05T12:57:25.732Z,24.52
2019-04-05T12:59:58.789Z,15.35
2019-04-05T13:02:33.876Z,20.37
2019-04-05T13:05:03.318Z,13.53
2019-04-05T13:07:35.183Z,15.80
2019-04-05T13:10:07.307Z,25.75
2019-04-05T13:12:37.557Z,19.87
2019-04-05T13:15:13.731Z,20.32
2019-04-05T13:17:39.828Z,16.48
2019-04-05T13:20:10.149Z,22.77
2019-04-05T13:22:40.345Z,15.95
2019-04-05T13:25:11.461Z,18.45
2019-04-05T13:27:42.209Z,10.90
2019-04-05T13:30:12.495Z,11.95
2019-04-05T13:32:42.780Z,12.37
2019-04-05T13:35:16.543Z,18.12
2019-04-05T13:37:45.723Z,17.37
2019-04-05T13:40:16.188Z,22.90
2019-04-05T13:42:46.427Z,8.90
2019-04-05T13:45:16.742Z,17.10
2019-04-05T13:47:47.920Z,13.60
2019-04-05T13:50:19.693Z,14.07
2019-04-05T13:52:49.994Z,24.77
2019-04-05T13:55:20.237Z,20.88
2019-04-05T13:57:50.851Z,29.15
2019-04-05T14:00:21.329Z,14.45
2019-04-05T14:02:51.570Z,20.43
2019-04-05T14:05:22.701Z,23.18
2019-04-05T14:08:09.165Z,20.90
2019-04-05T14:10:25.085Z,27.48
2019-04-05T14:12:55.276Z,16.57
2019-04-05T14:15:25.505Z,16.70
2019-04-05T14:17:55.752Z,17.25
2019-04-05T14:20:26.388Z,19.30
2019-04-05T14:22:56.619Z,16.23
2019-04-05T14:25:29.959Z,25.80
2019-04-05T14:27:58.846Z,25.48
2019-04-05T14:30:32.446Z,19.70
2019-04-05T14:33:01.273Z,18.23
2019-04-05T14:35:31.451Z,22.42
2019-04-05T14:38:01.669Z,19.90
2019-04-05T14:40:33.146Z,20.85
2019-04-05T14:43:03.657Z,25.97
2019-04-05T14:45:35.960Z,22.50
2019-04-05T14:48:06.349Z,30.75
2019-04-05T14:50:36.644Z,22.17
2019-04-05T14:53:06.970Z,23.57
2019-04-05T14:55:37.283Z,20.77
2019-04-05T14:58:10.332Z,21.68
2019-04-05T15:00:39.473Z,24.25
2019-04-05T15:03:09.796Z,22.65
2019-04-05T15:05:40.163Z,20.85
2019-04-05T15:08:10.400Z,21.62
2019-04-05T15:10:40.707Z,19.23
2019-04-05T15:13:10.933Z,17.17
2019-04-05T15:15:41.174Z,23.20
2019-04-05T15:18:12.956Z,26.65
2019-04-05T15:20:43.248Z,22.13
2019-04-05T15:23:14.161Z,22.40
2019-04-05T15:25:44.988Z,21.12
2019-04-05T15:28:17.671Z,17.87
2019-04-05T15:30:49.458Z,20.55
2019-04-05T15:33:19.818Z,20.08
2019-04-05T15:35:50.007Z,16.75
2019-04-05T15:38:20.509Z,20.12
2019-04-05T15:40:50.819Z,21.00
2019-04-05T15:43:21.011Z,18.87
2019-04-05T15:45:51.269Z,23.30
2019-04-05T15:48:22.790Z,20.80
2019-04-05T15:50:57.688Z,16.82
2019-04-05T15:53:31.506Z,18.85
2019-04-05T15:56:04.028Z,24.37
2019-04-05T15:58:34.066Z,21.70
2019-04-05T16:01:06.398Z,22.70
2019-04-05T16:03:37.052Z,25.92
2019-04-05T16:06:07.350Z,28.27
2019-04-05T16:08:39.385Z,33.25
2019-04-05T16:11:09.593Z,30.02
2019-04-05T16:13:39.921Z,26.55
2019-04-05T16:16:11.488Z,31.77
2019-04-05T16:18:41.690Z,26.55
2019-04-05T16:21:13.538Z,24.15
2019-04-05T16:23:43.765Z,31.00
2019-04-05T16:26:15.537Z,20.10
2019-04-05T16:28:45.763Z,25.95
2019-04-05T16:31:17.513Z,26.45
2019-04-05T16:33:47.838Z,24.85
2019-04-05T16:36:18.034Z,20.55
2019-04-05T16:38:48.259Z,19.15
2019-04-05T16:41:18.467Z,17.57
2019-04-05T16:43:48.694Z,21.73
2019-04-05T16:46:18.915Z,20.65
2019-04-05T16:48:49.388Z,21.60
2019-04-05T16:51:19.622Z,21.65
2019-04-05T16:54:00.484Z,21.07
2019-04-05T16:56:30.764Z,24.12
2019-04-05T16:59:01.050Z,17.77
2019-04-05T17:01:31.234Z,14.73
2019-04-05T17:04:01.480Z,15.68
2019-04-05T17:06:33.329Z,26.40
2019-04-05T17:09:05.164Z,21.55
2019-04-05T17:11:35.405Z,45.90
2019-04-05T17:14:05.612Z,53.95
2019-04-05T17:16:35.844Z,33.25
2019-04-05T17:19:06.057Z,27.95
2019-04-05T17:21:38.026Z,20.55
2019-04-05T17:24:08.282Z,19.60
2019-04-05T17:26:38.521Z,24.27
2019-04-05T17:29:08.805Z,18.10
2019-04-05T17:31:39.064Z,14.65
2019-04-05T17:34:09.364Z,16.42
2019-04-05T17:36:39.643Z,14.83
2019-04-05T17:39:09.959Z,16.20
2019-04-05T17:41:40.224Z,16.93
2019-04-05T17:44:10.476Z,17.05
2019-04-05T17:46:42.421Z,17.15
2019-04-05T17:49:12.645Z,17.23
2019-04-05T17:51:42.853Z,24.85
2019-04-05T17:54:13.096Z,15.30
2019-04-05T17:56:43.302Z,19.98
2019-04-05T17:59:13.529Z,23.60
2019-04-05T18:01:43.918Z,21.57
2019-04-05T18:04:14.169Z,16.05
2019-04-05T18:06:44.401Z,21.35
2019-04-05T18:09:14.622Z,21.45
2019-04-05T18:11:44.835Z,23.98
2019-04-05T18:14:15.087Z,24.60
2019-04-05T18:16:45.368Z,19.77
2019-04-05T18:19:15.587Z,21.80
2019-04-05T18:21:45.846Z,18.42
2019-04-05T18:24:16.385Z,19.98
2019-04-05T18:26:46.682Z,21.95
2019-04-05T18:29:17.020Z,22.30
2019-04-05T18:31:47.226Z,25.05
2019-04-05T18:34:17.516Z,30.80
2019-04-05T18:36:48.440Z,32.15
2019-04-05T18:39:18.681Z,29.30
2019-04-05T18:41:48.907Z,31.15
2019-04-05T18:44:19.303Z,27.73
2019-04-05T18:46:49.570Z,25.60
2019-04-05T18:49:19.832Z,23.95
2019-04-05T18:51:50.065Z,19.85
2019-04-05T18:54:20.253Z,23.07
2019-04-05T18:56:50.490Z,22.02
2019-04-05T18:59:20.883Z,21.48
2019-04-05T19:01:51.083Z,25.40
2019-04-05T19:04:21.430Z,20.57
2019-04-05T19:06:51.762Z,20.37
2019-04-05T19:09:23.540Z,23.98
2019-04-05T19:11:53.761Z,26.05
2019-04-05T19:14:24.083Z,19.65
2019-04-05T19:16:55.862Z,25.85
2019-04-05T19:19:26.057Z,19.60
2019-04-05T19:21:56.425Z,22.82
2019-04-05T19:24:26.646Z,25.30
2019-04-05T19:26:57.022Z,23.40
2019-04-05T19:29:28.369Z,24.25
2019-04-05T19:49:47.541Z,24.18
2019-04-05T19:52:19.368Z,23.90
2019-04-05T19:54:49.924Z,23.77
2019-04-05T19:57:20.169Z,27.60
2019-04-05T19:59:52.896Z,23.15
2019-04-05T20:02:23.196Z,23.83
2019-04-05T20:04:53.393Z,27.85
2019-04-05T20:07:23.614Z,27.48
2019-04-05T20:09:53.848Z,26.90
2019-04-05T20:12:24.050Z,23.00
2019-04-05T20:14:54.298Z,26.02
2019-04-05T20:17:24.697Z,26.00
2019-04-05T20:19:55.833Z,26.70
2019-04-05T20:22:26.145Z,24.45
2019-04-05T20:24:56.340Z,24.15
2019-04-05T20:27:26.561Z,23.10
2019-04-05T20:29:56.854Z,26.23
2019-04-05T20:32:27.064Z,24.77
2019-04-05T20:34:57.288Z,27.05
2019-04-05T20:37:27.538Z,31.20
2019-04-05T20:39:57.815Z,26.60
2019-04-05T20:42:28.199Z,25.08
2019-04-05T20:44:58.462Z,31.52
2019-04-05T20:47:28.758Z,29.90
2019-04-05T20:49:58.962Z,26.27
2019-04-05T20:52:29.223Z,24.80
2019-04-05T20:55:00.637Z,30.57
2019-04-05T20:57:30.890Z,23.45
2019-04-05T21:00:01.092Z,24.80
2019-04-05T21:02:31.312Z,29.45
2019-04-05T21:05:01.564Z,27.82
2019-04-05T21:07:31.826Z,30.43
2019-04-05T21:10:02.313Z,31.90
2019-04-05T21:12:32.578Z,31.68
2019-04-05T21:15:02.854Z,29.95
2019-04-05T21:17:33.073Z,30.08
2019-04-05T21:20:03.272Z,30.68
2019-04-05T21:22:33.815Z,30.75
2019-04-05T21:25:05.618Z,38.50
2019-04-05T21:27:37.411Z,36.40
2019-04-05T21:30:08.078Z,41.90
2019-04-05T21:32:38.695Z,25.92
2019-04-05T21:35:08.893Z,34.48
2019-04-05T21:37:39.444Z,36.85
2019-04-05T21:40:09.946Z,43.42
2019-04-05T21:42:40.150Z,39.60
2019-04-05T21:45:10.422Z,37.67
2019-04-05T21:47:40.636Z,33.25
2019-04-05T21:50:10.853Z,31.42
2019-04-05T21:52:41.066Z,32.08
2019-04-05T21:55:11.290Z,27.15
2019-04-05T21:57:41.601Z,32.30
2019-04-05T22:00:14.980Z,26.33
2019-04-05T22:02:45.225Z,32.45
2019-04-05T22:05:15.422Z,23.35
2019-04-05T22:07:45.657Z,24.47
2019-04-05T22:10:16.073Z,31.12
2019-04-05T22:12:47.858Z,28.90
2019-04-05T22:15:19.661Z,24.40
2019-04-05T22:17:49.877Z,23.85
2019-04-05T22:20:20.597Z,16.15
2019-04-05T22:22:52.581Z,17.07
2019-04-05T22:25:22.833Z,19.50
2019-04-05T22:27:53.079Z,20.32
2019-04-05T22:30:23.347Z,16.93
2019-04-05T22:32:53.546Z,19.80
2019-04-05T22:35:23.873Z,20.75
2019-04-05T22:37:55.643Z,14.95
2019-04-05T22:40:25.893Z,14.70
2019-04-05T22:42:57.742Z,14.47
2019-04-05T22:45:27.974Z,14.93
2019-04-05T22:47:58.173Z,12.47
2019-04-05T22:50:28.667Z,10.70
2019-04-05T22:52:58.912Z,10.28
2019-04-05T22:55:29.106Z,8.45
2019-04-05T22:57:59.312Z,7.05
2019-04-05T23:00:29.543Z,8.90
2019-04-05T23:03:01.397Z,7.40
2019-04-05T23:05:31.694Z,9.15
2019-04-05T23:08:01.967Z,7.58
2019-04-05T23:10:32.291Z,9.65
2019-04-05T23:13:02.509Z,6.83
2019-04-05T23:15:32.779Z,6.33
2019-04-05T23:18:04.684Z,11.00
2019-04-05T23:20:34.915Z,7.17
2019-04-05T23:23:05.137Z,6.03
2019-04-05T23:25:35.322Z,4.92
2019-04-05T23:28:05.508Z,8.20
2019-04-05T23:30:35.754Z,12.98
2019-04-05T23:33:06.117Z,11.75
2019-04-05T23:35:36.318Z,9.53
2019-04-05T23:38:06.577Z,10.68
2019-04-05T23:40:37.607Z,10.10
2019-04-05T23:43:07.930Z,8.45
2019-04-05T23:45:38.227Z,5.22
2019-04-05T23:48:08.491Z,8.70
2019-04-05T23:50:38.706Z,7.62
2019-04-05T23:53:08.944Z,3.87
2019-04-05T23:55:39.148Z,7.67
2019-04-05T23:58:09.350Z,5.40
